createdAt,value
2019-03-31T00:03:47.622Z,12.46
2019-03-31T00:06:38.490Z,12.36
2019-03-31T00:09:29.366Z,12.27
2019-03-31T00:12:12.774Z,12.20
2019-03-31T00:15:03.793Z,12.16
2019-03-31T00:17:46.656Z,12.11
2019-03-31T00:20:37.584Z,12.03
2019-03-31T00:23:21.142Z,11.95
2019-03-31T00:26:12.038Z,11.89
2019-03-31T00:28:54.894Z,11.87
2019-03-31T00:31:45.795Z,11.81
2019-03-31T00:34:29.199Z,11.74
2019-03-31T00:37:20.095Z,11.69
2019-03-31T00:40:03.167Z,11.66
2019-03-31T00:42:54.086Z,11.60
2019-03-31T00:45:36.918Z,11.57
2019-03-31T00:48:09.050Z,11.52
2019-03-31T00:50:59.979Z,11.51
2019-03-31T00:53:50.925Z,11.48
2019-03-31T00:56:34.622Z,11.50
2019-03-31T00:59:25.580Z,11.47
2019-03-31T01:06:06.647Z,11.40
2019-03-31T01:12:31.402Z,11.41
2019-03-31T01:19:12.069Z,11.44
2019-03-31T01:22:02.993Z,11.44
2019-03-31T01:24:53.964Z,11.43
2019-03-31T01:27:37.506Z,11.45
2019-03-31T01:30:21.633Z,11.43
2019-03-31T01:33:12.644Z,11.43
2019-03-31T01:35:56.166Z,11.44
2019-03-31T01:38:47.094Z,11.44
2019-03-31T01:41:30.629Z,11.42
2019-03-31T01:44:21.626Z,11.40
2019-03-31T01:47:05.323Z,11.38
2019-03-31T01:49:56.260Z,11.35
2019-03-31T01:52:39.962Z,11.31
2019-03-31T01:55:30.856Z,11.27
2019-03-31T01:58:13.818Z,11.25
2019-03-31T02:04:08.321Z,11.22
2019-03-31T02:06:51.201Z,11.22
2019-03-31T02:09:42.092Z,11.18
2019-03-31T02:12:25.289Z,11.15
2019-03-31T02:15:16.191Z,11.09
2019-03-31T02:17:59.625Z,11.06
2019-03-31T02:20:50.539Z,11.06
2019-03-31T02:23:34.001Z,11.05
2019-03-31T02:29:27.354Z,11.00
2019-03-31T02:32:23.729Z,11.02
2019-03-31T02:35:03.491Z,10.98
2019-03-31T02:37:46.457Z,10.99
2019-03-31T02:40:37.385Z,10.97
2019-03-31T02:43:20.341Z,10.88
2019-03-31T02:46:11.265Z,10.89
2019-03-31T02:48:54.250Z,10.85
2019-03-31T02:51:45.162Z,10.77
2019-03-31T02:54:28.320Z,10.79
2019-03-31T03:01:07.207Z,10.75
2019-03-31T03:07:31.293Z,10.83
2019-03-31T03:14:09.481Z,10.84
2019-03-31T03:16:41.570Z,10.88
2019-03-31T03:19:32.530Z,10.90
2019-03-31T03:25:07.693Z,10.94
2019-03-31T03:27:50.977Z,10.88
2019-03-31T03:30:34.072Z,10.88
2019-03-31T03:33:25.057Z,10.86
2019-03-31T03:36:08.449Z,10.87
2019-03-31T03:38:59.364Z,10.81
2019-03-31T03:41:42.321Z,10.82
2019-03-31T03:44:33.221Z,10.80
2019-03-31T03:47:16.847Z,10.72
2019-03-31T03:49:59.663Z,10.70
2019-03-31T03:52:50.595Z,10.74
2019-03-31T03:55:33.942Z,10.69
2019-03-31T03:58:24.856Z,10.66
2019-03-31T04:01:27.970Z,10.72
2019-03-31T04:04:18.888Z,10.64
2019-03-31T04:07:02.347Z,10.61
2019-03-31T04:09:53.220Z,10.62
2019-03-31T04:12:36.236Z,10.64
2019-03-31T04:15:27.146Z,10.70
2019-03-31T04:18:10.583Z,10.60
2019-03-31T04:21:01.457Z,10.46
2019-03-31T04:23:44.497Z,10.42
2019-03-31T04:26:35.356Z,10.35
2019-03-31T04:29:18.227Z,10.30
2019-03-31T04:32:09.132Z,10.31
2019-03-31T04:35:00.515Z,10.22
2019-03-31T04:38:04.991Z,10.20
2019-03-31T04:40:55.931Z,10.26
2019-03-31T04:43:38.812Z,10.18
2019-03-31T04:46:29.789Z,10.16
2019-03-31T04:49:13.620Z,10.20
2019-03-31T04:52:04.578Z,10.23
2019-03-31T04:54:55.469Z,10.24
2019-03-31T04:57:46.372Z,10.28
2019-03-31T05:00:29.459Z,10.29
2019-03-31T05:03:20.383Z,10.31
2019-03-31T05:06:03.951Z,10.32
2019-03-31T05:08:54.891Z,10.32
2019-03-31T05:11:45.784Z,10.38
2019-03-31T05:14:36.706Z,10.35
2019-03-31T05:17:20.325Z,10.29
2019-03-31T05:20:11.331Z,10.32
2019-03-31T05:22:54.877Z,10.27
2019-03-31T05:25:45.820Z,10.30
2019-03-31T05:28:28.659Z,10.25
2019-03-31T05:31:19.561Z,10.32
2019-03-31T05:34:02.736Z,10.29
2019-03-31T05:36:53.627Z,10.18
2019-03-31T05:39:37.161Z,10.12
2019-03-31T05:42:28.095Z,10.13
2019-03-31T05:45:11.690Z,10.26
2019-03-31T05:48:02.599Z,10.18
2019-03-31T05:50:45.732Z,10.18
2019-03-31T05:53:36.636Z,10.16
2019-03-31T05:56:20.234Z,10.18
2019-03-31T05:59:11.169Z,10.33
2019-03-31T06:01:54.497Z,10.26
2019-03-31T06:04:45.442Z,10.21
2019-03-31T06:07:28.243Z,10.20
2019-03-31T06:10:19.152Z,10.25
2019-03-31T06:13:02.274Z,10.22
2019-03-31T06:15:53.199Z,10.16
2019-03-31T06:18:36.870Z,10.26
2019-03-31T06:21:29.246Z,10.22
2019-03-31T06:24:32.446Z,10.23
2019-03-31T06:27:23.371Z,10.13
2019-03-31T06:30:07.301Z,10.10
2019-03-31T06:32:58.208Z,9.99
2019-03-31T06:35:41.270Z,9.97
2019-03-31T06:38:32.166Z,9.91
2019-03-31T06:41:15.568Z,9.91
2019-03-31T06:44:06.483Z,10.02
2019-03-31T06:46:49.278Z,9.93
2019-03-31T06:49:40.173Z,9.86
2019-03-31T06:52:23.792Z,9.84
2019-03-31T06:55:14.704Z,9.81
2019-03-31T06:57:58.393Z,9.72
2019-03-31T07:00:49.269Z,9.67
2019-03-31T07:03:32.438Z,9.60
2019-03-31T07:06:42.132Z,9.60
2019-03-31T07:09:25.873Z,9.65
2019-03-31T07:12:16.762Z,9.71
2019-03-31T07:15:00.102Z,9.63
2019-03-31T07:17:51.000Z,9.60
2019-03-31T07:20:34.084Z,9.52
2019-03-31T07:23:24.996Z,9.46
2019-03-31T07:26:08.391Z,9.56
2019-03-31T07:28:52.138Z,9.55
2019-03-31T07:31:43.016Z,9.52
2019-03-31T07:34:30.696Z,9.42
2019-03-31T07:37:13.894Z,9.45
2019-03-31T07:40:05.319Z,9.43
2019-03-31T07:43:08.792Z,9.44
2019-03-31T07:45:59.723Z,9.33
2019-03-31T07:48:43.463Z,9.34
2019-03-31T07:51:37.404Z,9.37
2019-03-31T07:54:39.434Z,9.45
2019-03-31T07:57:29.930Z,9.48
2019-03-31T08:00:14.509Z,9.48
2019-03-31T08:03:08.803Z,9.43
2019-03-31T08:05:51.998Z,9.44
2019-03-31T08:08:42.880Z,9.43
2019-03-31T08:11:33.762Z,9.44
2019-03-31T08:14:16.790Z,9.55
2019-03-31T08:17:07.719Z,9.61
2019-03-31T08:19:51.329Z,9.57
2019-03-31T08:22:42.251Z,9.53
2019-03-31T08:25:25.103Z,9.59
2019-03-31T08:28:15.983Z,9.59
2019-03-31T08:30:58.823Z,9.57
2019-03-31T08:33:49.735Z,9.55
2019-03-31T08:36:35.279Z,9.58
2019-03-31T08:39:25.652Z,9.60
2019-03-31T08:42:08.558Z,9.69
2019-03-31T08:44:59.442Z,9.77
2019-03-31T08:51:09.372Z,9.83
2019-03-31T08:54:00.287Z,9.80
2019-03-31T08:56:43.944Z,9.85
2019-03-31T08:59:34.827Z,9.87
2019-03-31T09:05:34.935Z,9.90
2019-03-31T09:08:25.834Z,10.02
2019-03-31T09:11:16.818Z,10.08
2019-03-31T09:13:59.743Z,10.04
2019-03-31T09:16:50.655Z,10.16
2019-03-31T09:19:33.655Z,10.20
2019-03-31T09:22:24.592Z,10.28
2019-03-31T09:25:07.694Z,10.28
2019-03-31T09:27:58.608Z,10.41
2019-03-31T09:30:41.493Z,10.44
2019-03-31T09:33:32.394Z,10.49
2019-03-31T09:36:16.929Z,10.51
2019-03-31T09:39:00.445Z,10.55
2019-03-31T09:41:51.374Z,10.63
2019-03-31T09:44:34.574Z,10.62
2019-03-31T09:47:25.459Z,10.75
2019-03-31T09:50:09.534Z,10.75
2019-03-31T09:53:00.426Z,10.72
2019-03-31T09:55:44.086Z,10.74
2019-03-31T09:58:34.996Z,10.82
2019-03-31T10:01:18.196Z,11.01
2019-03-31T10:04:09.119Z,11.34
2019-03-31T10:06:53.289Z,11.56
2019-03-31T10:10:04.513Z,11.66
2019-03-31T10:12:47.586Z,11.75
2019-03-31T10:15:38.487Z,11.88
2019-03-31T10:18:21.801Z,12.01
2019-03-31T10:21:12.663Z,11.82
2019-03-31T10:23:55.557Z,11.81
2019-03-31T10:26:46.486Z,11.80
2019-03-31T10:29:29.622Z,11.86
2019-03-31T10:32:20.556Z,12.01
2019-03-31T10:35:04.600Z,12.09
2019-03-31T10:37:53.571Z,12.14
2019-03-31T10:40:37.286Z,12.11
2019-03-31T10:43:09.433Z,12.11
2019-03-31T10:46:00.365Z,12.20
2019-03-31T10:48:51.320Z,12.50
2019-03-31T10:51:34.874Z,12.65
2019-03-31T10:54:25.786Z,12.68
2019-03-31T10:57:09.750Z,12.67
2019-03-31T10:59:53.033Z,12.67
2019-03-31T11:02:43.927Z,12.71
2019-03-31T11:05:26.921Z,12.76
2019-03-31T11:08:17.848Z,12.71
2019-03-31T11:11:00.653Z,12.73
2019-03-31T11:13:51.567Z,12.80
2019-03-31T11:16:35.243Z,12.88
2019-03-31T11:19:26.160Z,12.96
2019-03-31T11:22:28.512Z,13.09
2019-03-31T11:25:21.337Z,13.09
2019-03-31T11:28:24.674Z,13.13
2019-03-31T11:31:17.946Z,13.42
2019-03-31T11:34:20.149Z,13.59
2019-03-31T11:38:04.798Z,13.77
2019-03-31T11:40:47.603Z,13.95
2019-03-31T11:43:57.372Z,14.21
2019-03-31T11:46:40.564Z,14.30
2019-03-31T11:49:31.492Z,14.29
2019-03-31T11:52:16.318Z,14.43
2019-03-31T11:55:07.404Z,14.69
2019-03-31T11:57:51.057Z,15.12
2019-03-31T12:04:17.098Z,15.26
2019-03-31T12:07:01.337Z,15.32
2019-03-31T12:09:44.755Z,15.62
2019-03-31T12:12:37.199Z,15.83
2019-03-31T12:15:20.438Z,15.94
2019-03-31T12:18:11.346Z,16.18
2019-03-31T12:20:55.071Z,16.23
2019-03-31T12:23:45.987Z,16.68
2019-03-31T12:26:29.054Z,16.91
2019-03-31T12:29:20.067Z,16.65
2019-03-31T12:32:10.975Z,16.73
2019-03-31T12:35:17.946Z,16.72
2019-03-31T12:38:01.650Z,16.40
2019-03-31T12:40:52.556Z,16.46
2019-03-31T12:43:35.988Z,16.41
2019-03-31T12:46:26.901Z,16.54
2019-03-31T12:49:10.280Z,16.17
2019-03-31T12:52:01.164Z,16.01
2019-03-31T12:54:50.238Z,16.36
2019-03-31T12:57:33.747Z,16.76
2019-03-31T13:00:24.697Z,16.59
2019-03-31T13:03:08.325Z,16.47
2019-03-31T13:05:59.212Z,16.33
2019-03-31T13:08:42.436Z,16.12
2019-03-31T13:11:33.358Z,16.17
2019-03-31T13:14:16.328Z,16.16
2019-03-31T13:17:07.242Z,16.10
2019-03-31T13:19:50.915Z,15.99
2019-03-31T13:22:41.841Z,15.95
2019-03-31T13:25:25.143Z,15.96
2019-03-31T13:28:16.014Z,15.88
2019-03-31T13:30:59.659Z,15.82
2019-03-31T13:33:50.548Z,15.75
2019-03-31T13:36:34.234Z,15.82
2019-03-31T13:39:25.163Z,16.05
2019-03-31T13:42:08.570Z,15.98
2019-03-31T13:44:59.467Z,15.95
2019-03-31T13:47:42.297Z,16.07
2019-03-31T13:50:33.206Z,15.86
2019-03-31T13:53:16.562Z,15.80
2019-03-31T13:56:07.532Z,15.96
2019-03-31T13:58:52.459Z,16.17
2019-03-31T14:01:42.962Z,16.10
2019-03-31T14:04:26.653Z,15.91
2019-03-31T14:07:10.027Z,15.78
2019-03-31T14:10:00.905Z,15.55
2019-03-31T14:12:44.534Z,15.36
2019-03-31T14:15:35.450Z,15.64
2019-03-31T14:18:18.432Z,15.88
2019-03-31T14:21:09.303Z,15.83
2019-03-31T14:23:58.741Z,15.80
2019-03-31T14:26:47.845Z,16.04
2019-03-31T14:29:42.268Z,15.98
2019-03-31T14:32:43.695Z,16.00
2019-03-31T14:35:37.836Z,15.90
2019-03-31T14:38:40.633Z,15.90
2019-03-31T14:41:31.674Z,15.94
2019-03-31T14:44:19.014Z,15.58
2019-03-31T14:47:02.710Z,15.37
2019-03-31T14:49:53.626Z,15.45
2019-03-31T14:52:37.265Z,15.76
2019-03-31T14:55:28.191Z,16.11
2019-03-31T14:58:11.665Z,16.01
2019-03-31T15:01:21.499Z,16.44
2019-03-31T15:04:26.619Z,16.80
2019-03-31T15:07:17.539Z,17.12
2019-03-31T15:10:00.780Z,16.83
2019-03-31T15:12:51.693Z,16.78
2019-03-31T15:15:34.823Z,16.57
2019-03-31T15:22:14.303Z,16.00
2019-03-31T15:25:05.389Z,16.10
2019-03-31T15:27:48.987Z,16.22
2019-03-31T15:30:39.883Z,16.39
2019-03-31T15:33:23.588Z,16.55
2019-03-31T15:36:14.522Z,16.52
2019-03-31T15:39:09.116Z,16.45
2019-03-31T15:41:50.782Z,16.45
2019-03-31T15:44:41.688Z,16.24
2019-03-31T15:47:29.543Z,15.93
2019-03-31T15:54:08.227Z,15.69
2019-03-31T15:56:59.176Z,15.33
2019-03-31T16:00:44.818Z,15.10
2019-03-31T16:03:27.967Z,14.78
2019-03-31T16:06:18.853Z,14.61
2019-03-31T16:09:02.209Z,14.61
2019-03-31T16:11:54.047Z,14.75
2019-03-31T16:14:56.976Z,14.75
2019-03-31T16:17:47.333Z,14.85
2019-03-31T16:20:30.693Z,14.82
2019-03-31T16:23:21.091Z,14.74
2019-03-31T16:26:04.353Z,14.64
2019-03-31T16:28:55.289Z,14.71
2019-03-31T16:31:38.390Z,14.70
2019-03-31T16:34:28.745Z,14.49
2019-03-31T16:37:11.648Z,14.42
2019-03-31T16:39:54.564Z,14.41
2019-03-31T16:42:44.962Z,14.20
2019-03-31T16:45:31.507Z,13.92
2019-03-31T16:48:14.135Z,13.81
2019-03-31T16:51:04.501Z,13.66
2019-03-31T16:53:47.035Z,13.57
2019-03-31T16:56:37.399Z,13.39
2019-03-31T16:59:20.557Z,13.32
2019-03-31T17:02:10.924Z,13.15
2019-03-31T17:04:54.332Z,13.16
2019-03-31T17:07:44.720Z,13.19
2019-03-31T17:10:27.976Z,13.05
2019-03-31T17:16:44.847Z,12.97
2019-03-31T17:19:35.192Z,12.79
2019-03-31T17:22:25.578Z,12.75
2019-03-31T17:25:08.399Z,12.70
2019-03-31T17:27:58.743Z,12.59
2019-03-31T17:30:41.500Z,12.52
2019-03-31T17:33:31.878Z,12.47
2019-03-31T17:36:14.485Z,12.40
2019-03-31T17:42:42.591Z,12.29
2019-03-31T17:45:25.587Z,12.02
2019-03-31T17:48:15.987Z,11.99
2019-03-31T17:51:06.404Z,11.86
2019-03-31T17:53:49.011Z,11.67
2019-03-31T17:56:39.343Z,11.62
2019-03-31T17:59:22.768Z,11.57
2019-03-31T18:02:13.120Z,11.34
2019-03-31T18:04:56.599Z,11.35
2019-03-31T18:07:46.956Z,11.32
2019-03-31T18:10:30.196Z,11.17
2019-03-31T18:13:20.551Z,11.13
2019-03-31T18:16:03.417Z,11.11
2019-03-31T18:18:53.760Z,11.01
2019-03-31T18:21:37.267Z,10.91
2019-03-31T18:24:27.652Z,10.89
2019-03-31T18:27:10.791Z,10.83
2019-03-31T18:30:01.242Z,10.82
2019-03-31T18:32:51.586Z,10.77
2019-03-31T18:35:41.951Z,10.67
2019-03-31T18:38:26.173Z,10.70
2019-03-31T18:41:11.260Z,10.57
2019-03-31T18:44:01.649Z,10.50
2019-03-31T18:46:45.019Z,10.49
2019-03-31T18:49:35.386Z,10.39
2019-03-31T18:52:18.714Z,10.30
2019-03-31T18:55:19.989Z,10.29
2019-03-31T18:58:18.507Z,10.23
2019-03-31T19:01:20.944Z,10.23
2019-03-31T19:04:54.746Z,10.13
2019-03-31T19:08:03.985Z,10.11
2019-03-31T19:11:32.147Z,10.09
2019-03-31T19:14:41.367Z,10.01
2019-03-31T19:17:40.465Z,9.95
2019-03-31T19:24:10.418Z,9.89
2019-03-31T19:30:01.163Z,9.85
2019-03-31T19:33:10.469Z,9.74
2019-03-31T19:36:12.549Z,9.68
2019-03-31T19:39:21.819Z,9.64
2019-03-31T19:42:11.267Z,9.55
2019-03-31T19:45:20.544Z,9.50
2019-03-31T19:48:24.991Z,9.50
2019-03-31T19:51:34.317Z,9.40
2019-03-31T19:57:15.900Z,9.34
2019-03-31T20:03:54.446Z,9.26
2019-03-31T20:10:03.347Z,9.13
2019-03-31T20:13:12.597Z,9.10
2019-03-31T20:16:25.078Z,9.02
2019-03-31T20:19:27.240Z,8.92
2019-03-31T20:22:36.948Z,8.93
2019-03-31T20:25:39.096Z,8.94
2019-03-31T20:28:48.335Z,8.87
2019-03-31T20:31:57.642Z,8.81
2019-03-31T20:34:55.093Z,8.61
2019-03-31T20:37:43.817Z,8.64
2019-03-31T20:41:02.297Z,8.61
2019-03-31T20:43:53.679Z,8.43
2019-03-31T20:46:36.849Z,8.44
2019-03-31T20:52:44.883Z,8.40
2019-03-31T20:55:35.304Z,8.35
2019-03-31T20:58:18.071Z,8.24
2019-03-31T21:01:10.200Z,8.17
2019-03-31T21:04:12.971Z,8.08
2019-03-31T21:07:03.369Z,7.95
2019-03-31T21:09:46.664Z,7.88
2019-03-31T21:12:29.328Z,7.90
2019-03-31T21:15:40.197Z,7.88
2019-03-31T21:18:23.634Z,7.85
2019-03-31T21:21:14.005Z,7.74
2019-03-31T21:23:57.083Z,7.60
2019-03-31T21:26:47.531Z,7.55
2019-03-31T21:29:30.169Z,7.47
2019-03-31T21:32:20.529Z,7.41
2019-03-31T21:35:11.054Z,7.41
2019-03-31T21:38:01.411Z,7.33
2019-03-31T21:40:51.781Z,7.30
2019-03-31T21:43:42.159Z,7.20
2019-03-31T21:46:24.750Z,7.13
2019-03-31T21:49:15.104Z,7.07
2019-03-31T21:51:58.344Z,7.08
2019-03-31T21:54:48.719Z,6.98
2019-03-31T21:57:31.296Z,6.96
2019-03-31T22:03:49.995Z,6.75
2019-03-31T22:06:40.323Z,6.70
2019-03-31T22:09:30.719Z,6.63
2019-03-31T22:12:13.378Z,6.61
2019-03-31T22:14:55.958Z,6.66
2019-03-31T22:17:46.330Z,6.56
2019-03-31T22:20:29.635Z,6.54
2019-03-31T22:23:20.014Z,6.44
2019-03-31T22:26:03.365Z,6.49
2019-03-31T22:28:53.889Z,6.38
2019-03-31T22:31:36.784Z,6.32
2019-03-31T22:34:28.665Z,6.21
2019-03-31T22:37:12.200Z,6.18
2019-03-31T22:40:02.539Z,6.19
2019-03-31T22:42:45.709Z,6.06
2019-03-31T22:45:36.081Z,6.04
2019-03-31T22:48:18.923Z,6.02
2019-03-31T22:51:09.280Z,5.93
2019-03-31T22:53:52.226Z,5.92
2019-03-31T22:56:42.590Z,5.87
2019-03-31T22:59:25.427Z,5.80
2019-03-31T23:02:15.801Z,5.77
2019-03-31T23:04:59.302Z,5.71
2019-03-31T23:07:42.036Z,5.59
2019-03-31T23:10:32.376Z,5.61
2019-03-31T23:13:16.516Z,5.62
2019-03-31T23:15:59.336Z,5.57
2019-03-31T23:18:49.685Z,5.44
2019-03-31T23:21:33.119Z,5.48
2019-03-31T23:24:23.470Z,5.35
2019-03-31T23:27:06.596Z,5.46
2019-03-31T23:29:56.983Z,5.41
2019-03-31T23:32:40.221Z,5.38
2019-03-31T23:35:30.590Z,5.29
2019-03-31T23:38:20.963Z,5.30
2019-03-31T23:41:03.961Z,5.30
2019-03-31T23:43:54.311Z,5.24
2019-03-31T23:46:37.614Z,5.16
2019-03-31T23:49:27.977Z,5.17
2019-03-31T23:52:10.756Z,5.15
2019-03-31T23:55:01.124Z,5.05
2019-03-31T23:57:44.637Z,5.05
